Mexico — XCMK — position and weather

sailwx.info

Track history (hours):
 
Tides and Currents Weather Stations Pressure Air Temp Water Temp Dewpoint Dewpoint Depression Visibility Wind Speed Wind Dir Waves Ship Positions

Mexico

Last reported at 2018-Apr-23 00:52 UTC. Time now 2018-Apr-23 05:19 UTC.
Position N 20°31' W 086°57'.

Length 35 m; draft 1.5 m.

MMSI: 345110006.

Date/timePositionNaut miles runAvg speedWind from/ knotsBaromVisibWave heightAir tempDewpointWater temp
2018-Apr-23 00:52N 20°31' W 086°57'0 0.0
2018-Apr-23 00:12N 20°31' W 086°57'0 0.0
2018-Apr-22 23:59N 20°31' W 086°57'0 0.0
2018-Apr-22 23:30N 20°31' W 086°57'0 0.0
2018-Apr-22 23:00N 20°31' W 086°57'0 0.2
2018-Apr-22 22:30N 20°31' W 086°57'0 0.2
2018-Apr-22 22:00N 20°31' W 086°57'0 0.0
2018-Apr-22 21:30N 20°31' W 086°57'0 0.1
2018-Apr-22 21:00N 20°31' W 086°57'5 3.4
2018-Apr-22 19:29N 20°34' W 087°01'510.7
2018-Apr-22 19:00N 20°31' W 086°57'5 3.1
2018-Apr-22 17:28N 20°34' W 087°01'510.4
2018-Apr-22 17:00N 20°31' W 086°57'4 2.3
2018-Apr-22 15:21N 20°33' W 086°60'411.3
2018-Apr-22 15:00N 20°31' W 086°57'5 2.9
2018-Apr-22 13:25N 20°34' W 087°01'5 5.5
2018-Apr-22 12:35N 20°31' W 086°57'0 2.1
2018-Apr-22 12:30N 20°31' W 086°57'0 0.4
2018-Apr-22 11:58N 20°31' W 086°57'0 0.0
2018-Apr-22 00:31N 20°31' W 086°57'0 0.0
2018-Apr-22 00:28N 20°31' W 086°57'0 0.0
2018-Apr-21 23:58N 20°31' W 086°57'0 0.0
2018-Apr-21 23:28N 20°31' W 086°57'0 0.0
2018-Apr-21 22:58N 20°31' W 086°57'0 0.0
2018-Apr-21 22:28N 20°31' W 086°57'0 0.0
2018-Apr-21 21:58N 20°31' W 086°57'0 0.0
2018-Apr-21 21:28N 20°31' W 086°57'0 0.0
2018-Apr-21 20:58N 20°31' W 086°57'0 0.0
2018-Apr-21 20:28N 20°31' W 086°57'0 0.0
2018-Apr-21 19:58N 20°31' W 086°57'0 0.0
2018-Apr-21 19:28N 20°31' W 086°57'0 0.0
2018-Apr-21 18:58N 20°31' W 086°57'0 0.0
2018-Apr-21 18:31N 20°31' W 086°57'0 0.0
2018-Apr-21 18:00N 20°31' W 086°57'0 0.0
2018-Apr-21 17:31N 20°31' W 086°57'0 0.0
2018-Apr-21 17:00N 20°31' W 086°57'0 0.0
2018-Apr-21 16:29N 20°31' W 086°57'0 0.0
2018-Apr-20 23:34N 20°31' W 086°57'0 0.9
2018-Apr-20 23:31N 20°31' W 086°57'0 0.1
2018-Apr-20 23:01N 20°31' W 086°57'4 2.6
2018-Apr-20 21:27N 20°33' W 087°00'4 8.9
2018-Apr-20 21:00N 20°31' W 086°57'3 1.0
2018-Apr-20 17:25N 20°33' W 086°60'3 8.3
2018-Apr-20 17:00N 20°31' W 086°57'4 2.4
2018-Apr-20 15:22N 20°34' W 086°60'410.5
2018-Apr-20 15:00N 20°31' W 086°57'4 2.2
2018-Apr-20 13:22N 20°33' W 086°60'410.1
2018-Apr-20 13:00N 20°31' W 086°57'0 0.1
2018-Apr-20 12:30N 20°31' W 086°57'0 0.0
2018-Apr-20 12:00N 20°31' W 086°57'0 0.0
2018-Apr-20 00:59N 20°31' W 086°57'0 0.0
2018-Apr-20 00:30N 20°31' W 086°57'0 0.0
2018-Apr-20 00:00N 20°31' W 086°57'4 2.3
2018-Apr-19 22:23N 20°33' W 086°60'4 9.6
2018-Apr-19 22:00N 20°31' W 086°57'0 0.0
2018-Apr-19 21:30N 20°31' W 086°57'0 0.1
2018-Apr-19 21:00N 20°31' W 086°57'0 0.0
2018-Apr-19 20:30N 20°31' W 086°57'0 0.0
2018-Apr-19 20:00N 20°31' W 086°57'4 0.8
2018-Apr-19 15:24N 20°33' W 086°60'4 9.0
2018-Apr-19 15:00N 20°31' W 086°57'4 2.9
2018-Apr-19 13:28N 20°34' W 087°00'4 9.7
2018-Apr-19 13:00N 20°31' W 086°57'0 0.1
2018-Apr-19 12:30N 20°31' W 086°57'0 0.0
2018-Apr-19 00:08N 20°31' W 086°57'0 0.0
2018-Apr-19 00:01N 20°31' W 086°57'0 0.0
2018-Apr-18 23:30N 20°31' W 086°57'0 0.0
2018-Apr-18 23:01N 20°31' W 086°57'0 0.0
2018-Apr-18 22:31N 20°31' W 086°57'0 0.0
2018-Apr-18 22:01N 20°31' W 086°57'2 4.4
2018-Apr-18 21:31N 20°29' W 086°58'5 1.2
2018-Apr-18 17:26N 20°34' W 087°01'410.1
2018-Apr-18 17:00N 20°31' W 086°57'4 1.0
2018-Apr-18 12:45N 20°33' W 087°01'416.1
2018-Apr-18 12:30N 20°29' W 086°59'1 1.3
2018-Apr-18 12:00N 20°29' W 086°59'2 4.6
2018-Apr-18 11:29N 20°31' W 086°57'0 0.0
2018-Apr-18 11:00N 20°31' W 086°57'0 0.0
2018-Apr-18 00:19N 20°31' W 086°57'0 0.0
2018-Apr-18 00:00N 20°31' W 086°57'0 0.0
2018-Apr-17 23:30N 20°31' W 086°57'0 0.0
2018-Apr-17 23:00N 20°31' W 086°57'0 0.0
2018-Apr-17 22:30N 20°31' W 086°57'0 0.0
2018-Apr-17 22:00N 20°31' W 086°57'0 0.0
2018-Apr-17 21:30N 20°31' W 086°57'0 0.1
2018-Apr-17 21:00N 20°31' W 086°57'1 1.7
2018-Apr-17 20:30N 20°30' W 086°58'4 0.5
2018-Apr-17 12:50N 20°33' W 087°01'514.0
2018-Apr-17 12:30N 20°29' W 086°59'0 0.1
2018-Apr-17 12:00N 20°29' W 086°59'2 0.2
2018-Apr-17 00:45N 20°31' W 086°57'0 0.0
2018-Apr-17 00:30N 20°31' W 086°57'0 0.0
2018-Apr-17 00:00N 20°31' W 086°57'0 0.0
2018-Apr-16 23:30N 20°31' W 086°57'0 0.0
2018-Apr-16 23:00N 20°31' W 086°57'0 0.0
2018-Apr-16 22:30N 20°31' W 086°57'0 0.0
2018-Apr-16 22:00N 20°31' W 086°57'0 0.7
2018-Apr-16 21:30N 20°30' W 086°57'1 2.2
2018-Apr-16 21:00N 20°31' W 086°58'3 0.6
2018-Apr-16 15:28N 20°34' W 087°00'510.0
2018-Apr-16 15:00N 20°31' W 086°57'4 2.5
2018-Apr-16 13:27N 20°34' W 087°00'4 9.0
2018-Apr-16 13:00N 20°31' W 086°57'0 0.0
2018-Apr-16 12:30N 20°31' W 086°57'0 0.1
2018-Apr-16 12:00N 20°31' W 086°57'0 0.0
2018-Apr-16 00:34N 20°31' W 086°57'0 0.0
2018-Apr-16 00:28N 20°31' W 086°57'0 0.0
2018-Apr-15 23:58N 20°31' W 086°57'0 0.0
2018-Apr-15 23:28N 20°31' W 086°57'0 0.0
2018-Apr-15 22:58N 20°31' W 086°57'0 0.0
2018-Apr-15 22:28N 20°31' W 086°57'0 0.0
2018-Apr-15 21:58N 20°31' W 086°57'0 0.0
2018-Apr-15 21:28N 20°31' W 086°57'0 0.0
2018-Apr-15 20:58N 20°31' W 086°57'0 0.0
2018-Apr-15 20:28N 20°31' W 086°57'0 0.0
2018-Apr-15 20:00N 20°31' W 086°57'0 0.0
2018-Apr-15 19:30N 20°31' W 086°57'0 0.0
2018-Apr-15 19:00N 20°31' W 086°57'0 0.0
2018-Apr-15 18:30N 20°31' W 086°57'0 0.0
2018-Apr-15 18:00N 20°31' W 086°57'0 0.0
2018-Apr-15 17:30N 20°31' W 086°57'0 0.0
2018-Apr-15 17:00N 20°31' W 086°57'0 0.0
2018-Apr-15 16:30N 20°31' W 086°57'0 0.0
2018-Apr-15 16:00N 20°31' W 086°57'0 0.0
2018-Apr-15 15:30N 20°31' W 086°57'0 0.0
2018-Apr-15 15:00N 20°31' W 086°57'0 0.0
2018-Apr-15 14:30N 20°31' W 086°57'0 0.0
2018-Apr-15 14:00N 20°31' W 086°57'0 0.0
2018-Apr-15 13:30N 20°31' W 086°57'0 0.0
2018-Apr-14 22:40N 20°31' W 086°57'1 3.6
2018-Apr-14 22:30N 20°31' W 086°58'2 4.1
2018-Apr-14 22:00N 20°31' W 086°60'3 0.5
2018-Apr-14 14:58N 20°33' W 087°02'612.2
2018-Apr-14 14:30N 20°29' W 086°59'0 0.0
2018-Apr-14 14:00N 20°29' W 086°59'1 2.7
2018-Apr-14 13:30N 20°30' W 086°58'1 2.3
2018-Apr-14 12:59N 20°31' W 086°57'0 0.0
2018-Apr-14 12:30N 20°31' W 086°57'0 0.0
2018-Apr-14 12:01N 20°31' W 086°57'0 0.0
2018-Apr-14 00:23N 20°31' W 086°57'0 0.0
2018-Apr-14 00:00N 20°31' W 086°57'0 0.0
2018-Apr-13 23:30N 20°31' W 086°57'0 0.0
2018-Apr-13 23:00N 20°31' W 086°57'4 2.4
2018-Apr-13 21:26N 20°33' W 086°60'4 8.7
2018-Apr-13 21:00N 20°31' W 086°57'4 2.2
2018-Apr-13 19:23N 20°33' W 086°60'4 9.2
2018-Apr-13 19:00N 20°31' W 086°57'4 1.1
2018-Apr-13 15:28N 20°33' W 087°00'4 8.8
2018-Apr-13 15:00N 20°31' W 086°57'5 2.1
2018-Apr-13 12:50N 20°33' W 087°02'514.7
2018-Apr-13 12:30N 20°29' W 086°58'0 0.2
2018-Apr-13 12:00N 20°29' W 086°58'1 1.2
2018-Apr-13 11:31N 20°29' W 086°58'  
Track history (hours):
 
Tides and Currents Weather Stations Pressure Air Temp Water Temp Dewpoint Dewpoint Depression Visibility Wind Speed Wind Dir Waves Ship Positions

Mexico

Last reported at 2018-Apr-23 00:52 UTC. Time now 2018-Apr-23 05:19 UTC.
Position N 20°31' W 086°57'.

Length 35 m; draft 1.5 m.

MMSI: 345110006.

Date/timePositionNaut miles runAvg speedWind from/ knotsBaromVisibWave heightAir tempDewpointWater temp
2018-Apr-23 00:52N 20°31' W 086°57'0 0.0
2018-Apr-23 00:12N 20°31' W 086°57'0 0.0
2018-Apr-22 23:59N 20°31' W 086°57'0 0.0
2018-Apr-22 23:30N 20°31' W 086°57'0 0.0
2018-Apr-22 23:00N 20°31' W 086°57'0 0.2
2018-Apr-22 22:30N 20°31' W 086°57'0 0.2
2018-Apr-22 22:00N 20°31' W 086°57'0 0.0
2018-Apr-22 21:30N 20°31' W 086°57'0 0.1
2018-Apr-22 21:00N 20°31' W 086°57'5 3.4
2018-Apr-22 19:29N 20°34' W 087°01'510.7
2018-Apr-22 19:00N 20°31' W 086°57'5 3.1
2018-Apr-22 17:28N 20°34' W 087°01'510.4
2018-Apr-22 17:00N 20°31' W 086°57'4 2.3
2018-Apr-22 15:21N 20°33' W 086°60'411.3
2018-Apr-22 15:00N 20°31' W 086°57'5 2.9
2018-Apr-22 13:25N 20°34' W 087°01'5 5.5
2018-Apr-22 12:35N 20°31' W 086°57'0 2.1
2018-Apr-22 12:30N 20°31' W 086°57'0 0.4
2018-Apr-22 11:58N 20°31' W 086°57'0 0.0
2018-Apr-22 00:31N 20°31' W 086°57'0 0.0
2018-Apr-22 00:28N 20°31' W 086°57'0 0.0
2018-Apr-21 23:58N 20°31' W 086°57'0 0.0
2018-Apr-21 23:28N 20°31' W 086°57'0 0.0
2018-Apr-21 22:58N 20°31' W 086°57'0 0.0
2018-Apr-21 22:28N 20°31' W 086°57'0 0.0
2018-Apr-21 21:58N 20°31' W 086°57'0 0.0
2018-Apr-21 21:28N 20°31' W 086°57'0 0.0
2018-Apr-21 20:58N 20°31' W 086°57'0 0.0
2018-Apr-21 20:28N 20°31' W 086°57'0 0.0
2018-Apr-21 19:58N 20°31' W 086°57'0 0.0
2018-Apr-21 19:28N 20°31' W 086°57'0 0.0
2018-Apr-21 18:58N 20°31' W 086°57'0 0.0
2018-Apr-21 18:31N 20°31' W 086°57'0 0.0
2018-Apr-21 18:00N 20°31' W 086°57'0 0.0
2018-Apr-21 17:31N 20°31' W 086°57'0 0.0
2018-Apr-21 17:00N 20°31' W 086°57'0 0.0
2018-Apr-21 16:29N 20°31' W 086°57'0 0.0
2018-Apr-20 23:34N 20°31' W 086°57'0 0.9
2018-Apr-20 23:31N 20°31' W 086°57'0 0.1
2018-Apr-20 23:01N 20°31' W 086°57'4 2.6
2018-Apr-20 21:27N 20°33' W 087°00'4 8.9
2018-Apr-20 21:00N 20°31' W 086°57'3 1.0
2018-Apr-20 17:25N 20°33' W 086°60'3 8.3
2018-Apr-20 17:00N 20°31' W 086°57'4 2.4
2018-Apr-20 15:22N 20°34' W 086°60'410.5
2018-Apr-20 15:00N 20°31' W 086°57'4 2.2
2018-Apr-20 13:22N 20°33' W 086°60'410.1
2018-Apr-20 13:00N 20°31' W 086°57'0 0.1
2018-Apr-20 12:30N 20°31' W 086°57'0 0.0
2018-Apr-20 12:00N 20°31' W 086°57'0 0.0
2018-Apr-20 00:59N 20°31' W 086°57'0 0.0
2018-Apr-20 00:30N 20°31' W 086°57'0 0.0
2018-Apr-20 00:00N 20°31' W 086°57'4 2.3
2018-Apr-19 22:23N 20°33' W 086°60'4 9.6
2018-Apr-19 22:00N 20°31' W 086°57'0 0.0
2018-Apr-19 21:30N 20°31' W 086°57'0 0.1
2018-Apr-19 21:00N 20°31' W 086°57'0 0.0
2018-Apr-19 20:30N 20°31' W 086°57'0 0.0
2018-Apr-19 20:00N 20°31' W 086°57'4 0.8
2018-Apr-19 15:24N 20°33' W 086°60'4 9.0
2018-Apr-19 15:00N 20°31' W 086°57'4 2.9
2018-Apr-19 13:28N 20°34' W 087°00'4 9.7
2018-Apr-19 13:00N 20°31' W 086°57'0 0.1
2018-Apr-19 12:30N 20°31' W 086°57'0 0.0
2018-Apr-19 00:08N 20°31' W 086°57'0 0.0
2018-Apr-19 00:01N 20°31' W 086°57'0 0.0
2018-Apr-18 23:30N 20°31' W 086°57'0 0.0
2018-Apr-18 23:01N 20°31' W 086°57'0 0.0
2018-Apr-18 22:31N 20°31' W 086°57'0 0.0
2018-Apr-18 22:01N 20°31' W 086°57'2 4.4
2018-Apr-18 21:31N 20°29' W 086°58'5 1.2
2018-Apr-18 17:26N 20°34' W 087°01'410.1
2018-Apr-18 17:00N 20°31' W 086°57'4 1.0
2018-Apr-18 12:45N 20°33' W 087°01'416.1
2018-Apr-18 12:30N 20°29' W 086°59'1 1.3
2018-Apr-18 12:00N 20°29' W 086°59'2 4.6
2018-Apr-18 11:29N 20°31' W 086°57'0 0.0
2018-Apr-18 11:00N 20°31' W 086°57'0 0.0
2018-Apr-18 00:19N 20°31' W 086°57'0 0.0
2018-Apr-18 00:00N 20°31' W 086°57'0 0.0
2018-Apr-17 23:30N 20°31' W 086°57'0 0.0
2018-Apr-17 23:00N 20°31' W 086°57'0 0.0
2018-Apr-17 22:30N 20°31' W 086°57'0 0.0
2018-Apr-17 22:00N 20°31' W 086°57'0 0.0
2018-Apr-17 21:30N 20°31' W 086°57'0 0.1
2018-Apr-17 21:00N 20°31' W 086°57'1 1.7
2018-Apr-17 20:30N 20°30' W 086°58'4 0.5
2018-Apr-17 12:50N 20°33' W 087°01'514.0
2018-Apr-17 12:30N 20°29' W 086°59'0 0.1
2018-Apr-17 12:00N 20°29' W 086°59'2 0.2
2018-Apr-17 00:45N 20°31' W 086°57'0 0.0
2018-Apr-17 00:30N 20°31' W 086°57'0 0.0
2018-Apr-17 00:00N 20°31' W 086°57'0 0.0
2018-Apr-16 23:30N 20°31' W 086°57'0 0.0
2018-Apr-16 23:00N 20°31' W 086°57'0 0.0
2018-Apr-16 22:30N 20°31' W 086°57'0 0.0
2018-Apr-16 22:00N 20°31' W 086°57'0 0.7
2018-Apr-16 21:30N 20°30' W 086°57'1 2.2
2018-Apr-16 21:00N 20°31' W 086°58'3 0.6
2018-Apr-16 15:28N 20°34' W 087°00'510.0
2018-Apr-16 15:00N 20°31' W 086°57'4 2.5
2018-Apr-16 13:27N 20°34' W 087°00'4 9.0
2018-Apr-16 13:00N 20°31' W 086°57'0 0.0
2018-Apr-16 12:30N 20°31' W 086°57'0 0.1
2018-Apr-16 12:00N 20°31' W 086°57'0 0.0
2018-Apr-16 00:34N 20°31' W 086°57'0 0.0
2018-Apr-16 00:28N 20°31' W 086°57'0 0.0
2018-Apr-15 23:58N 20°31' W 086°57'0 0.0
2018-Apr-15 23:28N 20°31' W 086°57'0 0.0
2018-Apr-15 22:58N 20°31' W 086°57'0 0.0
2018-Apr-15 22:28N 20°31' W 086°57'0 0.0
2018-Apr-15 21:58N 20°31' W 086°57'0 0.0
2018-Apr-15 21:28N 20°31' W 086°57'0 0.0
2018-Apr-15 20:58N 20°31' W 086°57'0 0.0
2018-Apr-15 20:28N 20°31' W 086°57'0 0.0
2018-Apr-15 20:00N 20°31' W 086°57'0 0.0
2018-Apr-15 19:30N 20°31' W 086°57'0 0.0
2018-Apr-15 19:00N 20°31' W 086°57'0 0.0
2018-Apr-15 18:30N 20°31' W 086°57'0 0.0
2018-Apr-15 18:00N 20°31' W 086°57'0 0.0
2018-Apr-15 17:30N 20°31' W 086°57'0 0.0
2018-Apr-15 17:00N 20°31' W 086°57'0 0.0
2018-Apr-15 16:30N 20°31' W 086°57'0 0.0
2018-Apr-15 16:00N 20°31' W 086°57'0 0.0
2018-Apr-15 15:30N 20°31' W 086°57'0 0.0
2018-Apr-15 15:00N 20°31' W 086°57'0 0.0
2018-Apr-15 14:30N 20°31' W 086°57'0 0.0
2018-Apr-15 14:00N 20°31' W 086°57'0 0.0
2018-Apr-15 13:30N 20°31' W 086°57'0 0.0
2018-Apr-14 22:40N 20°31' W 086°57'1 3.6
2018-Apr-14 22:30N 20°31' W 086°58'2 4.1
2018-Apr-14 22:00N 20°31' W 086°60'3 0.5
2018-Apr-14 14:58N 20°33' W 087°02'612.2
2018-Apr-14 14:30N 20°29' W 086°59'0 0.0
2018-Apr-14 14:00N 20°29' W 086°59'1 2.7
2018-Apr-14 13:30N 20°30' W 086°58'1 2.3
2018-Apr-14 12:59N 20°31' W 086°57'0 0.0
2018-Apr-14 12:30N 20°31' W 086°57'0 0.0
2018-Apr-14 12:01N 20°31' W 086°57'0 0.0
2018-Apr-14 00:23N 20°31' W 086°57'0 0.0
2018-Apr-14 00:00N 20°31' W 086°57'0 0.0
2018-Apr-13 23:30N 20°31' W 086°57'0 0.0
2018-Apr-13 23:00N 20°31' W 086°57'4 2.4
2018-Apr-13 21:26N 20°33' W 086°60'4 8.7
2018-Apr-13 21:00N 20°31' W 086°57'4 2.2
2018-Apr-13 19:23N 20°33' W 086°60'4 9.2
2018-Apr-13 19:00N 20°31' W 086°57'4 1.1
2018-Apr-13 15:28N 20°33' W 087°00'4 8.8
2018-Apr-13 15:00N 20°31' W 086°57'5 2.1
2018-Apr-13 12:50N 20°33' W 087°02'514.7
2018-Apr-13 12:30N 20°29' W 086°58'0 0.2
2018-Apr-13 12:00N 20°29' W 086°58'1 1.2
2018-Apr-13 11:31N 20°29' W 086°58'  

Dump ship's entire track history